createdAt,value
2022-10-19T00:08:25.026Z,67.91
2022-10-19T00:18:52.375Z,67.75
2022-10-19T00:29:20.058Z,67.46
2022-10-19T00:39:45.882Z,67.13
2022-10-19T00:50:15.741Z,67.24
2022-10-19T01:00:43.268Z,67.03
2022-10-19T01:11:24.215Z,67.08
2022-10-19T01:22:01.403Z,66.91
2022-10-19T01:32:37.754Z,67.32
2022-10-19T01:43:11.277Z,68.06
2022-10-19T01:53:45.739Z,67.83
2022-10-19T02:04:15.553Z,67.58
2022-10-19T02:14:47.166Z,67.88
2022-10-19T02:25:15.350Z,68.25
2022-10-19T02:35:43.154Z,68.76
2022-10-19T02:46:17.125Z,69.18
2022-10-19T02:56:44.417Z,69.47
2022-10-19T03:07:12.905Z,69.72
2022-10-19T03:17:40.211Z,69.75
2022-10-19T03:28:07.472Z,69.81
2022-10-19T03:38:34.751Z,69.72
2022-10-19T03:49:02.296Z,69.66
2022-10-19T03:59:29.697Z,69.61
2022-10-19T04:09:57.054Z,69.40
2022-10-19T04:20:24.329Z,69.49
2022-10-19T04:30:51.679Z,69.69
2022-10-19T04:41:21.248Z,69.72
2022-10-19T04:51:48.516Z,69.97
2022-10-19T05:02:15.826Z,70.07
2022-10-19T05:12:43.097Z,70.23
2022-10-19T05:23:10.428Z,70.19
2022-10-19T05:33:38.406Z,70.01
2022-10-19T05:44:04.927Z,69.77
2022-10-19T05:54:32.394Z,69.18
2022-10-19T06:04:59.666Z,68.90
2022-10-19T06:15:26.990Z,68.33
2022-10-19T06:25:54.761Z,68.38
2022-10-19T06:36:24.728Z,68.72
2022-10-19T06:46:52.052Z,68.92
2022-10-19T06:57:19.422Z,68.90
2022-10-19T07:07:46.857Z,69.04
2022-10-19T07:18:14.262Z,68.97
2022-10-19T07:28:43.437Z,69.09
2022-10-19T07:39:10.972Z,69.25
2022-10-19T07:49:38.473Z,69.56
2022-10-19T08:00:07.378Z,69.38
2022-10-19T08:10:34.898Z,69.34
2022-10-19T08:21:04.786Z,69.10
2022-10-19T08:31:32.324Z,67.65
2022-10-19T08:42:06.924Z,66.22
2022-10-19T08:52:37.312Z,64.75
2022-10-19T09:03:17.626Z,64.00
2022-10-19T09:14:04.854Z,62.52
2022-10-19T09:24:43.960Z,61.66
2022-10-19T09:35:27.467Z,61.35
2022-10-19T09:45:58.505Z,60.99
2022-10-19T09:56:27.852Z,59.91
2022-10-19T10:06:57.712Z,59.39
2022-10-19T10:17:31.612Z,58.20
2022-10-19T10:28:02.091Z,59.17
2022-10-19T10:38:33.756Z,58.01
2022-10-19T10:49:03.629Z,58.08
2022-10-19T10:59:36.225Z,59.10
2022-10-19T11:10:13.822Z,59.66
2022-10-19T11:20:50.198Z,59.77
2022-10-19T11:31:23.516Z,60.11
2022-10-19T11:42:02.423Z,60.18
2022-10-19T11:52:40.478Z,59.88
2022-10-19T12:03:26.905Z,60.01
2022-10-19T12:13:58.467Z,59.80
2022-10-19T12:24:28.723Z,59.62
2022-10-19T12:35:05.014Z,59.58
2022-10-19T12:45:35.501Z,59.17
2022-10-19T12:56:06.456Z,58.89
2022-10-19T13:06:37.674Z,58.44
2022-10-19T13:17:05.778Z,58.48
2022-10-19T13:27:39.482Z,58.40
2022-10-19T13:38:29.964Z,58.58
2022-10-19T13:49:20.607Z,58.86
2022-10-19T14:00:07.162Z,58.89
2022-10-19T14:10:56.227Z,59.20
2022-10-19T14:21:32.394Z,59.13
2022-10-19T14:32:01.448Z,59.27
2022-10-19T14:42:38.834Z,58.95
2022-10-19T14:53:20.595Z,58.86
2022-10-19T15:03:51.128Z,59.11
2022-10-19T15:14:22.066Z,59.04
2022-10-19T15:25:25.170Z,59.06
2022-10-19T15:35:52.733Z,59.45
2022-10-19T15:46:31.188Z,59.66
2022-10-19T15:56:59.743Z,59.86
2022-10-19T16:07:32.082Z,59.66
2022-10-19T16:18:01.456Z,60.05
2022-10-19T16:28:29.571Z,60.18
2022-10-19T16:38:56.990Z,60.21
2022-10-19T16:49:24.321Z,60.55
2022-10-19T17:10:27.204Z,60.66
2022-10-19T17:20:55.602Z,60.91
2022-10-19T17:31:23.175Z,61.14
2022-10-19T17:41:52.614Z,61.28
2022-10-19T17:52:19.904Z,61.67
2022-10-19T18:02:48.896Z,62.21
2022-10-19T18:13:16.410Z,62.49
2022-10-19T18:23:43.901Z,62.56
2022-10-19T18:34:16.020Z,62.75
2022-10-19T18:44:43.335Z,62.81
2022-10-19T18:55:11.713Z,63.21
2022-10-19T19:05:38.968Z,63.44
2022-10-19T19:16:07.978Z,63.70
2022-10-19T19:26:39.974Z,63.72
2022-10-19T19:37:10.345Z,63.60
2022-10-19T19:47:38.633Z,63.55
2022-10-19T19:58:05.979Z,63.62
2022-10-19T20:08:33.983Z,63.51
2022-10-19T20:19:02.586Z,62.85
2022-10-19T20:29:28.453Z,62.82
2022-10-19T20:39:55.815Z,62.50
2022-10-19T20:50:23.517Z,62.45
2022-10-19T21:00:50.719Z,62.41
2022-10-19T21:11:20.630Z,62.36
2022-10-19T21:21:49.932Z,62.05
2022-10-19T21:32:18.425Z,61.88
2022-10-19T21:42:46.229Z,61.68
2022-10-19T21:53:13.568Z,61.29
2022-10-19T22:03:41.004Z,61.26
2022-10-19T22:14:08.361Z,60.82
2022-10-19T22:24:35.842Z,59.88
2022-10-19T22:35:03.256Z,60.41
2022-10-19T22:45:30.773Z,60.43
2022-10-19T22:55:58.253Z,60.25
2022-10-19T23:06:25.701Z,60.46
2022-10-19T23:16:53.073Z,60.03
2022-10-19T23:27:21.246Z,59.74
2022-10-19T23:37:48.761Z,59.66
2022-10-19T23:48:16.059Z,59.54
2022-10-19T23:58:43.556Z,59.88
